Tuesday, January 15, 2019, 6:59 PM EST
Back to Local

K1P1, Plymouth, Plymouth Municipal Airport

Location: Plymouth, NH, United States Lat: 43.779
Local Time: 6:59 PM EST (23:59 GMT) Lon: -71.754
Time Zone: US/Eastern Elev: 505 ft

Show me the last for .
Show Decoded

2019-01-15 18:35 METAR K1P1 152335Z AUTO 00000KT 10SM OVC033 M04/M07 A3006 RMK AO2 T10431068 =
2019-01-15 18:15 METAR K1P1 152315Z AUTO 00000KT 10SM OVC031 M04/M07 A3006 RMK AO2 T10361069 =
2019-01-15 17:55 METAR K1P1 152255Z AUTO 00000KT 10SM BKN029 OVC070 M04/M07 A3005 RMK AO2
                 T10411070 =
2019-01-15 17:35 METAR K1P1 152235Z AUTO 00000KT 10SM SCT029 BKN070 M03/M07 A3005 RMK AO2
                 T10351071 =
2019-01-15 17:15 METAR K1P1 152215Z AUTO 28003KT 10SM CLR M03/M07 A3004 RMK AO2 T10351070 =
2019-01-15 16:55 METAR K1P1 152155Z AUTO 00000KT 10SM CLR M04/M07 A3004 RMK AO2 T10401074 =
2019-01-15 16:35 METAR K1P1 152135Z AUTO 00000KT 10SM CLR M03/M07 A3004 RMK AO2 T10321072 =
2019-01-15 16:15 METAR K1P1 152115Z AUTO 28005KT 10SM CLR M03/M07 A3004 RMK AO2 T10301071 =
2019-01-15 15:55 METAR K1P1 152055Z AUTO 27008KT 10SM CLR M03/M07 A3004 RMK AO2 T10271072 =
2019-01-15 15:35 METAR K1P1 152035Z AUTO 27007KT 10SM CLR M02/M07 A3004 RMK AO2 T10251071 =
2019-01-15 15:15 METAR K1P1 152015Z AUTO 28007KT 10SM CLR M03/M07 A3004 RMK AO2 T10261072 =
2019-01-15 14:55 METAR K1P1 151955Z AUTO 27009KT 10SM CLR M02/M07 A3004 RMK AO2 T10251072 =
2019-01-15 14:35 METAR K1P1 151935Z AUTO 27007KT 10SM CLR M02/M07 A3003 RMK AO2 T10251072 =
2019-01-15 14:15 METAR K1P1 151915Z AUTO 28008KT 10SM CLR M02/M07 A3003 RMK AO2 T10191071 =
2019-01-15 13:55 METAR K1P1 151855Z AUTO 27008G15KT 240V310 10SM SCT075 M02/M07 A3003 RMK AO2
                 T10171071 =
2019-01-15 13:35 METAR K1P1 151835Z AUTO 28008KT 10SM SCT075 M02/M07 A3003 RMK AO2 T10201071 =
2019-01-15 13:15 METAR K1P1 151815Z AUTO 28009G15KT 10SM BKN044 M02/M07 A3003 RMK AO2 T10201072 =
2019-01-15 12:55 METAR K1P1 151755Z AUTO 27008KT 10SM OVC044 M02/M07 A3003 RMK AO2 T10241072
                 11024 21061 =
2019-01-15 12:35 METAR K1P1 151735Z AUTO 27007KT 240V300 10SM OVC042 M03/M07 A3003 RMK AO2
                 T10271073 =
2019-01-15 12:15 METAR K1P1 151715Z AUTO 29006KT 10SM BKN040 M03/M07 A3004 RMK AO2 T10291075 =
2019-01-15 11:55 METAR K1P1 151655Z AUTO 29006G16KT 10SM SCT040 M03/M07 A3004 RMK AO2 T10271074 =
2019-01-15 11:35 METAR K1P1 151635Z AUTO 28007KT 10SM SCT042 M03/M07 A3004 RMK AO2 T10311075 =
2019-01-15 11:15 METAR K1P1 151615Z AUTO 28009G14KT 10SM BKN042 M04/M08 A3006 RMK AO2 T10361076 =
2019-01-15 10:55 METAR K1P1 151555Z AUTO 28008KT 10SM OVC040 M04/M08 A3007 RMK AO2 T10381076 =
2019-01-15 10:35 METAR K1P1 151535Z AUTO 28008KT 10SM BKN022 BKN029 OVC040 M04/M08 A3008 RMK AO2
                 T10391077 =
2019-01-15 10:15 METAR K1P1 151515Z AUTO 28007KT 10SM OVC022 M04/M08 A3009 RMK AO2 T10451080 =
2019-01-15 09:55 METAR K1P1 151455Z AUTO 28006KT 10SM BKN024 OVC038 M05/M08 A3008 RMK AO2
                 T10461082 =
2019-01-15 09:35 METAR K1P1 151435Z AUTO 29009KT 10SM SCT024 OVC038 M05/M08 A3008 RMK AO2
                 T10471082 =
2019-01-15 09:15 METAR K1P1 151415Z AUTO 29008KT 10SM OVC038 M05/M08 A3008 RMK AO2 T10481083 =
2019-01-15 08:55 METAR K1P1 151355Z AUTO 29007KT 10SM OVC038 M05/M08 A3007 RMK AO2 T10511085 =
2019-01-15 08:35 METAR K1P1 151335Z AUTO 30006KT 10SM OVC038 M05/M08 A3006 RMK AO2 T10521085 =
2019-01-15 08:15 METAR K1P1 151315Z AUTO 31007KT 10SM OVC038 M05/M09 A3006 RMK AO2 T10551087 =
2019-01-15 07:55 METAR K1P1 151255Z AUTO 00000KT 10SM SCT030 OVC040 M05/M09 A3006 RMK AO2
                 T10551091 =
2019-01-15 07:35 METAR K1P1 151235Z AUTO 35005KT 10SM SCT028 BKN040 M06/M09 A3005 RMK AO2
                 T10561094 =
2019-01-15 07:15 METAR K1P1 151215Z AUTO 28008G15KT 10SM SCT028 M06/M10 A3005 RMK AO2 T10601096 =
2019-01-15 06:55 METAR K1P1 151155Z AUTO 28006KT 10SM CLR M06/M10 A3004 RMK AO2 T10611098 11061
                 21075 =
2019-01-15 06:35 METAR K1P1 151135Z AUTO 31008KT 10SM CLR M06/M10 A3004 RMK AO2 T10631100 =
2019-01-15 06:15 METAR K1P1 151115Z AUTO 29008KT 10SM CLR M07/M10 A3003 RMK AO2 T10671105 =
2019-01-15 05:55 METAR K1P1 151055Z AUTO 30008G14KT 10SM CLR M07/M11 A3003 RMK AO2 T10681110 =
2019-01-15 05:35 METAR K1P1 151035Z AUTO 29009G15KT 10SM CLR M07/M11 A3002 RMK AO2 T10701115 =
2019-01-15 05:15 METAR K1P1 151015Z AUTO 29009G15KT 10SM CLR M07/M12 A3002 RMK AO2 T10701124 =
2019-01-15 04:55 METAR K1P1 150955Z AUTO 28008KT 10SM CLR M07/M13 A3002 RMK AO2 T10701131 =
2019-01-15 04:35 METAR K1P1 150935Z AUTO 30011G16KT 10SM CLR M07/M13 A3002 RMK AO2 T10671131 =
2019-01-15 04:15 METAR K1P1 150915Z AUTO 29009G16KT 10SM CLR M07/M13 A3002 RMK AO2 T10671133 =
2019-01-15 03:55 METAR K1P1 150855Z AUTO 30010G18KT 10SM CLR M07/M13 A3003 RMK AO2 T10671133 =
2019-01-15 03:35 METAR K1P1 150835Z AUTO 32006KT 10SM CLR M07/M13 A3003 RMK AO2 T10691132 =
2019-01-15 03:15 METAR K1P1 150815Z AUTO 28007KT 10SM CLR M07/M13 A3003 RMK AO2 T10721132 =
2019-01-15 02:55 METAR K1P1 150755Z AUTO 28008KT 10SM CLR M07/M13 A3004 RMK AO2 T10731131 =
2019-01-15 02:35 METAR K1P1 150735Z AUTO 29009KT 10SM CLR M07/M13 A3004 RMK AO2 T10711132 =
2019-01-15 02:15 METAR K1P1 150715Z AUTO 29009KT 10SM CLR M07/M13 A3004 RMK AO2 T10701131 =
2019-01-15 01:55 METAR K1P1 150655Z AUTO 29009G15KT 10SM CLR M07/M13 A3004 RMK AO2 T10691131 =
2019-01-15 01:35 METAR K1P1 150635Z AUTO 29009G16KT 10SM CLR M06/M13 A3004 RMK AO2 T10651131 =
2019-01-15 01:15 METAR K1P1 150615Z AUTO 29011G17KT 10SM CLR M06/M13 A3004 RMK AO2 T10651131 =
2019-01-15 00:55 METAR K1P1 150555Z AUTO 29009KT 10SM CLR M06/M13 A3004 RMK AO2 T10621133 11052
                 21070 =
2019-01-15 00:35 METAR K1P1 150535Z AUTO 29010KT 10SM CLR M06/M13 A3004 RMK AO2 T10651131 =
2019-01-15 00:15 METAR K1P1 150515Z AUTO 30008KT 10SM CLR M06/M13 A3004 RMK AO2 T10651131 =
2019-01-14 23:55 METAR K1P1 150455Z AUTO 30009KT 10SM SCT120 M06/M13 A3005 RMK AO2 T10631132 =
2019-01-14 23:35 METAR K1P1 150435Z AUTO 32009KT 10SM SCT120 M06/M13 A3006 RMK AO2 T10641130 =
2019-01-14 23:15 METAR K1P1 150415Z AUTO 28008KT 10SM SCT120 M06/M13 A3007 RMK AO2 T10651132 =
2019-01-14 22:55 METAR K1P1 150355Z AUTO 00000KT 10SM CLR M07/M13 A3007 RMK AO2 T10701130
                 410321238 =
2019-01-14 22:35 METAR K1P1 150335Z AUTO 33004KT 10SM CLR M07/M13 A3007 RMK AO2 T10661128 =
2019-01-14 22:15 METAR K1P1 150315Z AUTO 31008KT 10SM CLR M06/M13 A3007 RMK AO2 T10621127 =
2019-01-14 21:55 METAR K1P1 150255Z AUTO 32006KT 10SM CLR M06/M13 A3007 RMK AO2 T10621126 =
2019-01-14 21:35 METAR K1P1 150235Z AUTO 30004KT 10SM CLR M06/M12 A3007 RMK AO2 T10601125 =
2019-01-14 21:15 METAR K1P1 150215Z AUTO 31005KT 10SM CLR M06/M12 A3007 RMK AO2 T10571122 =
2019-01-14 20:55 METAR K1P1 150155Z AUTO 29009KT 10SM CLR M06/M12 A3007 RMK AO2 T10561121 =
2019-01-14 20:35 METAR K1P1 150135Z AUTO 30009KT 10SM CLR M06/M12 A3008 RMK AO2 T10571120 =
2019-01-14 20:15 METAR K1P1 150115Z AUTO 29009G15KT 10SM CLR M05/M12 A3008 RMK AO2 T10551122 =
2019-01-14 19:55 METAR K1P1 150055Z AUTO 29009KT 10SM CLR M05/M13 A3008 RMK AO2 T10531126 =
2019-01-14 19:35 METAR K1P1 150035Z AUTO 31003KT 10SM CLR M06/M12 A3009 RMK AO2 T10561125 =
2019-01-14 19:15 METAR K1P1 150015Z AUTO 29008KT 10SM CLR M05/M13 A3009 RMK AO2 T10531128 =

Support USWX by starting your Amazon purchase here.